Harnell Park, Minnesota
Current Conditions -  °F | °C
As of 2:55 AM on Saturday 29 Nov 2014 (Local Time) from KDLH Reporting Station
Overcast Overcast  
Wind Chill: -14°   Ceiling: 1000
Heat Index: -7°   Visibility: 7mi
Dew Point: -9°   Wind: 10mph
Humidity: 85%   Direction: 140°SE
Pressure: 29.57"   Gusts: NA
Location:  46.8859°N, 92.4258°W
Report Text: KDLH 290855Z 14009KT 7SM OVC010 M07/M09 A2957 RMK AO2 SNB0757E27 SLP043 P0001 60001 I3000 T10721094 58018
Loading
Personal Weather Stations






























Interactive Weather Map New forecast layout! Learn more

10-Day Weather Forecast

Advertisements
Track Severe Weather on mobile